createdAt,value
2023-03-17T00:02:18.350Z,58.50
2023-03-17T00:04:53.406Z,49.90
2023-03-17T00:07:28.054Z,56.30
2023-03-17T00:10:02.465Z,59.90
2023-03-17T00:12:36.974Z,57.80
2023-03-17T00:15:15.134Z,52.90
2023-03-17T00:17:50.894Z,58.00
2023-03-17T00:20:31.198Z,50.30
2023-03-17T00:23:06.692Z,51.30
2023-03-17T00:25:43.285Z,40.80
2023-03-17T00:28:23.588Z,52.50
2023-03-17T00:31:05.183Z,46.70
2023-03-17T00:33:40.631Z,45.60
2023-03-17T00:36:22.790Z,62.30
2023-03-17T00:38:57.374Z,57.30
2023-03-17T00:41:32.899Z,45.70
2023-03-17T00:44:07.646Z,54.30
2023-03-17T00:46:42.573Z,44.40
2023-03-17T00:49:22.183Z,46.70
2023-03-17T00:51:56.461Z,51.20
2023-03-17T00:54:30.741Z,46.90
2023-03-17T00:57:06.829Z,47.60
2023-03-17T00:59:44.184Z,46.30
2023-03-17T01:02:18.523Z,50.80
2023-03-17T01:05:05.588Z,42.90
2023-03-17T01:07:47.844Z,47.10
2023-03-17T01:10:26.546Z,49.80
2023-03-17T01:13:02.853Z,47.30
2023-03-17T01:15:38.673Z,44.30
2023-03-17T01:18:17.132Z,30.50
2023-03-17T01:20:53.295Z,27.20
2023-03-17T01:23:27.481Z,29.00
2023-03-17T01:26:01.964Z,30.10
2023-03-17T01:28:37.425Z,40.70
2023-03-17T01:31:12.694Z,43.00
2023-03-17T01:33:47.542Z,40.50
2023-03-17T01:36:21.878Z,29.60
2023-03-17T01:38:57.323Z,30.40
2023-03-17T01:41:34.378Z,29.40
2023-03-17T01:44:12.353Z,33.00
2023-03-17T01:46:47.583Z,33.20
2023-03-17T01:49:29.387Z,29.40
2023-03-17T01:52:09.604Z,31.70
2023-03-17T01:54:50.593Z,23.50
2023-03-17T01:57:32.670Z,26.10
2023-03-17T02:00:13.543Z,29.60
2023-03-17T02:02:51.012Z,29.40
2023-03-17T02:05:32.754Z,22.60
2023-03-17T02:08:12.865Z,27.60
2023-03-17T02:10:49.666Z,28.00
2023-03-17T02:13:24.514Z,27.50
2023-03-17T02:16:00.514Z,26.50
2023-03-17T02:18:35.298Z,27.80
2023-03-17T02:21:36.554Z,24.70
2023-03-17T02:24:20.839Z,25.80
2023-03-17T02:26:57.462Z,24.60
2023-03-17T02:29:33.761Z,35.80
2023-03-17T02:32:10.052Z,41.30
2023-03-17T02:34:44.320Z,36.30
2023-03-17T02:37:19.919Z,24.50
2023-03-17T02:39:54.261Z,25.70
2023-03-17T02:42:29.047Z,27.00
2023-03-17T02:45:07.099Z,32.30
2023-03-17T02:47:41.559Z,21.20
2023-03-17T02:50:24.580Z,26.50
2023-03-17T02:52:58.835Z,21.90
2023-03-17T02:55:33.002Z,25.80
2023-03-17T02:58:07.420Z,26.10
2023-03-17T03:00:41.845Z,26.80
2023-03-17T03:03:16.454Z,21.20
2023-03-17T03:05:52.064Z,28.20
2023-03-17T03:08:26.324Z,29.00
2023-03-17T03:11:02.631Z,26.40
2023-03-17T03:13:37.703Z,24.70
2023-03-17T03:16:12.672Z,26.70
2023-03-17T03:18:47.309Z,27.50
2023-03-17T03:21:22.176Z,22.90
2023-03-17T03:23:57.644Z,23.00
2023-03-17T03:26:32.236Z,22.80
2023-03-17T03:29:06.960Z,22.70
2023-03-17T03:31:41.184Z,23.40
2023-03-17T03:34:15.623Z,30.20
2023-03-17T03:36:49.990Z,29.50
2023-03-17T03:39:24.716Z,30.60
2023-03-17T03:41:59.004Z,27.00
2023-03-17T03:44:33.350Z,25.70
2023-03-17T03:47:07.742Z,29.30
2023-03-17T03:49:42.467Z,25.00
2023-03-17T03:52:16.940Z,27.50
2023-03-17T03:54:51.430Z,28.80
2023-03-17T03:57:25.741Z,23.20
2023-03-17T04:00:00.354Z,28.80
2023-03-17T04:02:34.428Z,37.30
2023-03-17T04:05:10.034Z,33.90
2023-03-17T04:07:44.942Z,32.10
2023-03-17T04:10:19.688Z,36.80
2023-03-17T04:12:54.148Z,46.60
2023-03-17T04:15:28.600Z,46.40
2023-03-17T04:18:02.830Z,32.20
2023-03-17T04:20:37.454Z,41.90
2023-03-17T04:23:11.956Z,40.00
2023-03-17T04:25:47.059Z,42.60
2023-03-17T04:28:22.535Z,35.20
2023-03-17T04:30:56.970Z,34.50
2023-03-17T04:33:31.189Z,29.60
2023-03-17T04:36:06.612Z,29.60
2023-03-17T04:38:40.928Z,24.30
2023-03-17T04:41:15.481Z,19.60
2023-03-17T04:43:49.971Z,18.70
2023-03-17T04:46:24.211Z,20.10
2023-03-17T04:48:58.776Z,24.50
2023-03-17T04:51:33.392Z,21.50
2023-03-17T04:54:08.339Z,27.90
2023-03-17T04:56:42.764Z,32.10
2023-03-17T04:59:17.472Z,32.60
2023-03-17T05:01:51.770Z,31.20
2023-03-17T05:04:31.763Z,27.80
2023-03-17T05:07:07.405Z,28.80
2023-03-17T05:09:42.706Z,25.30
2023-03-17T05:12:18.258Z,31.20
2023-03-17T05:14:52.603Z,38.60
2023-03-17T05:17:27.183Z,32.00
2023-03-17T05:20:01.589Z,27.20
2023-03-17T05:22:36.265Z,28.00
2023-03-17T05:25:13.302Z,19.40
2023-03-17T05:27:47.902Z,27.70
2023-03-17T05:30:22.938Z,34.60
2023-03-17T05:32:57.446Z,36.00
2023-03-17T05:35:32.231Z,28.20
2023-03-17T05:38:06.929Z,28.10
2023-03-17T05:40:41.299Z,29.50
2023-03-17T05:43:15.725Z,28.10
2023-03-17T05:45:51.718Z,27.70
2023-03-17T05:48:26.847Z,22.30
2023-03-17T05:51:01.467Z,29.30
2023-03-17T05:53:36.498Z,42.90
2023-03-17T05:56:12.933Z,40.40
2023-03-17T05:58:47.624Z,44.80
2023-03-17T06:01:22.007Z,67.30
2023-03-17T06:03:56.631Z,40.50
2023-03-17T06:06:31.148Z,27.00
2023-03-17T06:09:06.158Z,25.20
2023-03-17T06:11:40.447Z,25.00
2023-03-17T06:14:15.700Z,29.30
2023-03-17T06:16:49.795Z,26.80
2023-03-17T06:19:24.365Z,30.90
2023-03-17T06:21:58.718Z,26.80
2023-03-17T06:24:33.180Z,22.10
2023-03-17T06:27:07.679Z,37.70
2023-03-17T06:29:41.817Z,27.30
2023-03-17T06:32:20.729Z,29.80
2023-03-17T06:34:55.511Z,31.60
2023-03-17T06:37:30.403Z,31.40
2023-03-17T06:40:06.026Z,28.70
2023-03-17T06:42:40.176Z,29.60
2023-03-17T06:45:16.382Z,36.20
2023-03-17T06:47:50.836Z,30.10
2023-03-17T06:50:25.472Z,33.60
2023-03-17T06:52:59.762Z,31.80
2023-03-17T06:55:34.395Z,30.10
2023-03-17T06:58:09.434Z,30.00
2023-03-17T07:00:45.540Z,25.80
2023-03-17T07:03:20.545Z,31.60
2023-03-17T07:05:55.274Z,27.00
2023-03-17T07:08:31.004Z,36.80
2023-03-17T07:11:05.632Z,28.90
2023-03-17T07:13:40.917Z,26.30
2023-03-17T07:16:19.626Z,27.30
2023-03-17T07:18:54.185Z,23.70
2023-03-17T07:21:28.811Z,30.40
2023-03-17T07:24:02.940Z,29.00
2023-03-17T07:26:37.379Z,27.00
2023-03-17T07:29:11.602Z,23.70
2023-03-17T07:31:46.338Z,26.50
2023-03-17T07:34:20.787Z,24.50
2023-03-17T07:36:55.127Z,26.80
2023-03-17T07:39:29.369Z,24.10
2023-03-17T07:42:03.887Z,25.50
2023-03-17T07:44:39.925Z,21.90
2023-03-17T07:47:15.956Z,24.60
2023-03-17T07:49:51.326Z,26.20
2023-03-17T07:52:25.406Z,23.40
2023-03-17T07:54:59.941Z,26.60
2023-03-17T07:57:34.279Z,22.90
2023-03-17T08:00:10.835Z,22.90
2023-03-17T08:02:59.563Z,24.00
2023-03-17T08:05:41.619Z,25.10
2023-03-17T08:08:16.004Z,25.90
2023-03-17T08:10:50.922Z,24.80
2023-03-17T08:13:25.006Z,22.00
2023-03-17T08:15:59.637Z,21.30
2023-03-17T08:18:34.189Z,24.10
2023-03-17T08:21:09.222Z,22.60
2023-03-17T08:23:43.416Z,23.40
2023-03-17T08:26:18.702Z,26.60
2023-03-17T08:28:53.056Z,24.50
2023-03-17T08:31:27.276Z,24.40
2023-03-17T08:34:02.790Z,25.90
2023-03-17T08:36:37.265Z,20.10
2023-03-17T08:39:11.847Z,25.10
2023-03-17T08:41:47.257Z,20.80
2023-03-17T08:44:21.959Z,22.30
2023-03-17T08:46:56.510Z,24.80
2023-03-17T08:49:31.721Z,26.30
2023-03-17T08:52:09.327Z,22.50
2023-03-17T08:54:43.643Z,22.70
2023-03-17T08:57:18.130Z,19.90
2023-03-17T08:59:52.705Z,24.90
2023-03-17T09:02:26.874Z,21.60
2023-03-17T09:05:01.365Z,22.60
2023-03-17T09:07:35.818Z,18.90
2023-03-17T09:10:15.038Z,20.60
2023-03-17T09:12:49.156Z,18.60
2023-03-17T09:15:23.400Z,20.70
2023-03-17T09:17:57.858Z,19.80
2023-03-17T09:20:33.316Z,19.70
2023-03-17T09:23:11.887Z,20.70
2023-03-17T09:25:46.463Z,18.80
2023-03-17T09:28:20.772Z,19.30
2023-03-17T09:30:58.803Z,19.60
2023-03-17T09:33:33.644Z,35.50
2023-03-17T09:36:08.642Z,47.40
2023-03-17T09:38:42.738Z,20.30
2023-03-17T09:41:50.130Z,14.00
2023-03-17T09:44:41.272Z,19.50
2023-03-17T09:47:41.052Z,19.60
2023-03-17T09:50:23.430Z,20.20
2023-03-17T09:53:03.946Z,25.60
2023-03-17T09:55:40.097Z,17.70
2023-03-17T09:58:15.552Z,15.60
2023-03-17T10:00:50.701Z,24.30
2023-03-17T10:03:28.585Z,27.60
2023-03-17T10:06:25.221Z,30.50
2023-03-17T10:09:08.504Z,17.90
2023-03-17T10:11:47.367Z,15.90
2023-03-17T10:14:45.482Z,30.00
2023-03-17T10:17:23.213Z,15.80
2023-03-17T10:20:05.686Z,24.70
2023-03-17T10:22:49.337Z,23.90
2023-03-17T10:25:29.503Z,23.50
2023-03-17T10:28:13.532Z,14.10
2023-03-17T10:30:47.712Z,11.90
2023-03-17T10:33:23.865Z,10.10
2023-03-17T10:35:58.162Z,10.30
2023-03-17T10:38:32.596Z,8.50
2023-03-17T10:41:15.484Z,8.50
2023-03-17T10:43:52.144Z,7.40
2023-03-17T10:46:30.101Z,7.40
2023-03-17T10:49:10.896Z,7.80
2023-03-17T10:51:48.911Z,11.90
2023-03-17T10:54:25.859Z,9.10
2023-03-17T10:57:08.383Z,9.70
2023-03-17T10:59:53.533Z,9.90
2023-03-17T11:02:37.211Z,7.60
2023-03-17T11:05:22.478Z,9.30
2023-03-17T11:08:11.684Z,9.70
2023-03-17T11:10:47.181Z,8.20
2023-03-17T11:13:22.760Z,8.20
2023-03-17T11:16:12.005Z,6.20
2023-03-17T11:18:48.499Z,6.80
2023-03-17T11:21:31.149Z,7.00
2023-03-17T11:24:15.933Z,7.30
2023-03-17T11:27:00.833Z,7.60
2023-03-17T11:30:08.124Z,6.70
2023-03-17T11:32:50.561Z,5.60
2023-03-17T11:35:45.539Z,6.40
2023-03-17T11:38:36.477Z,5.90
2023-03-17T11:41:45.222Z,6.00
2023-03-17T11:45:06.163Z,7.50
2023-03-17T11:48:08.328Z,7.90
2023-03-17T11:50:53.297Z,6.40
2023-03-17T11:53:52.763Z,7.10
2023-03-17T11:56:39.159Z,6.30
2023-03-17T11:59:27.675Z,6.40
2023-03-17T12:02:22.927Z,5.30
2023-03-17T12:05:05.204Z,6.10
2023-03-17T12:07:47.521Z,5.70
2023-03-17T12:10:28.848Z,6.80
2023-03-17T12:13:09.447Z,6.00
2023-03-17T12:15:51.148Z,4.80
2023-03-17T12:18:33.117Z,6.80
2023-03-17T12:21:18.745Z,8.30
2023-03-17T12:23:58.590Z,8.70
2023-03-17T12:26:40.855Z,11.60
2023-03-17T12:29:22.062Z,6.70
2023-03-17T12:32:04.681Z,5.80
2023-03-17T12:34:50.960Z,5.30
2023-03-17T12:37:27.794Z,7.90
2023-03-17T12:40:10.542Z,6.90
2023-03-17T12:42:57.682Z,5.40
2023-03-17T12:45:55.970Z,5.50
2023-03-17T12:49:02.964Z,8.50
2023-03-17T12:51:57.320Z,6.40
2023-03-17T12:54:35.894Z,8.00
2023-03-17T12:57:22.287Z,7.00
2023-03-17T13:00:07.718Z,6.80
2023-03-17T13:02:47.052Z,8.00
2023-03-17T13:05:34.003Z,5.40
2023-03-17T13:08:13.731Z,5.70
2023-03-17T13:10:50.616Z,6.40
2023-03-17T13:13:46.273Z,5.70
2023-03-17T13:16:39.442Z,12.50
2023-03-17T13:19:24.868Z,7.60
2023-03-17T13:22:37.152Z,5.90
2023-03-17T13:25:35.102Z,10.00
2023-03-17T13:28:42.761Z,7.40
2023-03-17T13:31:36.854Z,6.10
2023-03-17T13:34:20.732Z,6.80
2023-03-17T13:37:15.192Z,6.20
2023-03-17T13:40:17.860Z,7.00
2023-03-17T13:43:17.530Z,6.10
2023-03-17T13:45:53.225Z,6.90
2023-03-17T13:48:38.601Z,6.30
2023-03-17T13:51:23.350Z,4.90
2023-03-17T13:54:08.782Z,5.60
2023-03-17T13:56:55.161Z,6.50
2023-03-17T13:59:57.791Z,6.10
2023-03-17T14:02:39.450Z,6.10
2023-03-17T14:05:25.775Z,6.20
2023-03-17T14:08:04.718Z,7.20
2023-03-17T14:10:39.703Z,6.30
2023-03-17T14:13:23.302Z,5.70
2023-03-17T14:16:05.296Z,6.10
2023-03-17T14:18:50.533Z,5.10
2023-03-17T14:21:32.289Z,6.10
2023-03-17T14:24:27.305Z,7.10
2023-03-17T14:27:16.306Z,5.40
2023-03-17T14:29:53.273Z,5.90
2023-03-17T14:32:30.329Z,7.40
2023-03-17T14:35:05.280Z,6.20
2023-03-17T14:37:43.280Z,9.30
2023-03-17T14:40:33.333Z,8.60
2023-03-17T14:43:12.294Z,13.10
2023-03-17T14:45:55.336Z,5.60
2023-03-17T14:48:38.884Z,5.60
2023-03-17T14:51:28.255Z,6.30
2023-03-17T14:54:12.671Z,6.80
2023-03-17T14:56:58.261Z,5.40
2023-03-17T14:59:40.300Z,5.60
2023-03-17T15:02:31.319Z,6.80
2023-03-17T15:05:20.267Z,6.70
2023-03-17T15:07:57.290Z,6.30
2023-03-17T15:10:45.292Z,6.20
2023-03-17T15:21:35.385Z,6.70
2023-03-17T15:24:40.186Z,6.10
2023-03-17T15:27:20.051Z,8.00
2023-03-17T15:29:54.218Z,7.80
2023-03-17T15:32:31.297Z,8.90
2023-03-17T15:35:06.337Z,8.60
2023-03-17T15:37:40.562Z,6.90
2023-03-17T15:40:16.948Z,8.10
2023-03-17T15:42:51.388Z,7.00
2023-03-17T15:45:25.606Z,7.10
2023-03-17T15:48:00.316Z,9.50
2023-03-17T15:50:39.263Z,8.80
2023-03-17T15:53:16.666Z,9.40
2023-03-17T15:55:51.404Z,11.40
2023-03-17T15:58:26.244Z,9.10
2023-03-17T16:01:03.544Z,7.00
2023-03-17T16:03:38.988Z,12.50
2023-03-17T16:06:22.298Z,14.70
2023-03-17T16:08:56.476Z,10.80
2023-03-17T16:11:34.417Z,29.70
2023-03-17T16:14:08.864Z,21.30
2023-03-17T16:16:45.902Z,12.30
2023-03-17T16:19:24.939Z,10.70
2023-03-17T16:21:59.635Z,20.90
2023-03-17T16:24:35.047Z,12.20
2023-03-17T16:27:17.783Z,12.60
2023-03-17T16:29:52.349Z,13.50
2023-03-17T16:32:26.652Z,12.00
2023-03-17T16:35:01.195Z,12.70
2023-03-17T16:37:35.426Z,26.50
2023-03-17T16:40:21.101Z,57.60
2023-03-17T16:42:56.240Z,23.10
2023-03-17T16:45:34.999Z,16.40
2023-03-17T16:48:13.964Z,11.30
2023-03-17T16:50:48.995Z,11.20
2023-03-17T16:53:23.751Z,9.90
2023-03-17T16:55:58.926Z,9.60
2023-03-17T16:58:36.916Z,10.80
2023-03-17T17:01:19.308Z,10.90
2023-03-17T17:03:53.986Z,12.20
2023-03-17T17:06:28.718Z,12.40
2023-03-17T17:09:03.031Z,12.10
2023-03-17T17:11:37.147Z,14.00
2023-03-17T17:14:11.384Z,13.00
2023-03-17T17:16:46.915Z,14.80
2023-03-17T17:19:22.017Z,14.70
2023-03-17T17:21:56.300Z,10.90
2023-03-17T17:24:31.291Z,13.90
2023-03-17T17:27:06.220Z,11.90
2023-03-17T17:29:40.414Z,12.00
2023-03-17T17:32:18.274Z,17.50
2023-03-17T17:34:52.615Z,16.10
2023-03-17T17:37:27.223Z,14.60
2023-03-17T17:40:01.968Z,19.10
2023-03-17T17:42:36.388Z,18.50
2023-03-17T17:45:13.746Z,16.10
2023-03-17T17:47:48.629Z,16.90
2023-03-17T17:50:27.517Z,15.70
2023-03-17T17:53:05.676Z,16.20
2023-03-17T17:55:40.260Z,14.80
2023-03-17T17:58:19.213Z,13.70
2023-03-17T18:00:55.546Z,15.20
2023-03-17T18:03:32.059Z,14.30
2023-03-17T18:06:07.110Z,11.80
2023-03-17T18:08:43.644Z,11.90
2023-03-17T18:11:18.027Z,13.70
2023-03-17T18:13:52.393Z,11.30
2023-03-17T18:16:28.456Z,11.70
2023-03-17T18:19:03.056Z,12.30
2023-03-17T18:21:38.309Z,16.40
2023-03-17T18:24:13.660Z,13.70
2023-03-17T18:26:48.214Z,13.00
2023-03-17T18:29:22.852Z,11.90
2023-03-17T18:31:59.193Z,14.30
2023-03-17T18:34:41.079Z,14.80
2023-03-17T18:37:18.830Z,10.60
2023-03-17T18:40:12.033Z,12.00
2023-03-17T18:42:47.388Z,12.20
2023-03-17T18:45:22.673Z,13.50
2023-03-17T18:47:57.358Z,13.80
2023-03-17T18:50:31.882Z,14.60
2023-03-17T18:53:06.999Z,17.70
2023-03-17T18:55:41.934Z,15.70
2023-03-17T18:58:16.154Z,16.80
2023-03-17T19:00:51.515Z,14.10
2023-03-17T19:03:26.711Z,12.80
2023-03-17T19:06:07.993Z,14.30
2023-03-17T19:08:42.587Z,14.10
2023-03-17T19:11:21.656Z,18.10
2023-03-17T19:13:56.541Z,16.40
2023-03-17T19:16:33.181Z,15.10
2023-03-17T19:19:08.242Z,15.30
2023-03-17T19:21:42.733Z,14.20
2023-03-17T19:24:17.191Z,17.80
2023-03-17T19:26:51.988Z,16.10
2023-03-17T19:29:27.896Z,17.20
2023-03-17T19:32:02.518Z,13.10
2023-03-17T19:34:36.963Z,11.80
2023-03-17T19:37:11.745Z,15.20
2023-03-17T19:39:46.226Z,13.80
2023-03-17T19:42:20.490Z,12.90
2023-03-17T19:44:54.820Z,16.80
2023-03-17T19:47:29.030Z,19.10
2023-03-17T19:50:03.531Z,19.60
2023-03-17T19:52:37.833Z,19.20
2023-03-17T19:55:13.701Z,19.10
2023-03-17T19:57:47.996Z,18.40
2023-03-17T20:00:24.005Z,15.30
2023-03-17T20:02:58.219Z,19.70
2023-03-17T20:05:32.904Z,16.00
2023-03-17T20:08:08.000Z,17.80
2023-03-17T20:10:43.053Z,21.20
2023-03-17T20:13:17.426Z,25.00
2023-03-17T20:15:53.048Z,16.40
2023-03-17T20:18:27.822Z,23.20
2023-03-17T20:21:05.810Z,21.50
2023-03-17T20:23:40.555Z,22.90
2023-03-17T20:26:15.072Z,24.50
2023-03-17T20:28:49.571Z,25.80
2023-03-17T20:31:24.177Z,21.70
2023-03-17T20:33:58.984Z,28.30
2023-03-17T20:36:33.186Z,28.70
2023-03-17T20:39:08.024Z,28.80
2023-03-17T20:41:42.506Z,24.40
2023-03-17T20:44:18.651Z,22.00
2023-03-17T20:46:53.151Z,20.20
2023-03-17T20:49:27.821Z,20.10
2023-03-17T20:52:02.130Z,22.00
2023-03-17T20:54:36.464Z,20.10
2023-03-17T20:57:14.588Z,19.20
2023-03-17T20:59:49.204Z,19.60
2023-03-17T21:02:24.117Z,20.90
2023-03-17T21:04:58.455Z,22.80
2023-03-17T21:07:32.731Z,24.00
2023-03-17T21:10:08.373Z,18.90
2023-03-17T21:12:43.032Z,22.20
2023-03-17T21:15:18.311Z,20.70
2023-03-17T21:17:52.617Z,23.60
2023-03-17T21:20:27.414Z,24.50
2023-03-17T21:23:04.636Z,26.30
2023-03-17T21:25:39.131Z,19.10
2023-03-17T21:28:13.886Z,19.30
2023-03-17T21:30:48.740Z,21.30
2023-03-17T21:33:23.322Z,20.00
2023-03-17T21:35:59.063Z,21.30
2023-03-17T21:38:33.616Z,25.70
2023-03-17T21:41:33.586Z,20.90
2023-03-17T21:44:09.968Z,27.70
2023-03-17T21:46:44.663Z,25.80
2023-03-17T21:49:19.712Z,25.90
2023-03-17T21:51:54.866Z,22.70
2023-03-17T21:54:30.453Z,23.70
2023-03-17T21:57:04.911Z,28.10
2023-03-17T21:59:40.132Z,31.00
2023-03-17T22:02:18.752Z,24.30
2023-03-17T22:04:53.496Z,23.50
2023-03-17T22:07:28.241Z,25.40
2023-03-17T22:10:06.301Z,28.70
2023-03-17T22:12:41.656Z,20.60
2023-03-17T22:23:07.109Z,24.10
2023-03-17T22:25:41.916Z,21.60
2023-03-17T22:28:16.212Z,20.80
2023-03-17T22:30:50.388Z,20.70
2023-03-17T22:33:24.506Z,24.60
2023-03-17T22:35:58.899Z,22.00
2023-03-17T22:38:34.029Z,32.20
2023-03-17T22:41:13.104Z,24.20
2023-03-17T22:43:47.655Z,29.30
2023-03-17T22:46:22.935Z,24.60
2023-03-17T22:48:57.226Z,25.90
2023-03-17T22:51:31.420Z,25.90
2023-03-17T22:54:05.889Z,25.10
2023-03-17T22:56:40.087Z,24.80
2023-03-17T22:59:14.433Z,30.00
2023-03-17T23:01:48.714Z,25.10
2023-03-17T23:04:22.789Z,27.90
2023-03-17T23:06:59.101Z,24.70
2023-03-17T23:09:33.844Z,29.20
2023-03-17T23:12:09.026Z,25.40
2023-03-17T23:14:43.836Z,22.50
2023-03-17T23:17:18.224Z,22.80
2023-03-17T23:19:52.408Z,20.90
2023-03-17T23:22:26.545Z,23.60
2023-03-17T23:25:01.245Z,23.50
2023-03-17T23:27:35.369Z,20.70
2023-03-17T23:30:13.448Z,21.50
2023-03-17T23:32:49.391Z,22.20
2023-03-17T23:35:24.180Z,24.20
2023-03-17T23:37:58.682Z,22.80
2023-03-17T23:40:34.710Z,20.20
2023-03-17T23:43:08.896Z,19.60
2023-03-17T23:45:43.780Z,22.70
2023-03-17T23:48:18.254Z,20.80
2023-03-17T23:50:55.893Z,20.20
2023-03-17T23:53:30.108Z,29.00
2023-03-17T23:56:05.038Z,27.10
2023-03-17T23:58:39.319Z,21.20
